sensor_id;sensor_type;location;lat;lon;timestamp;temperature;humidity
9723;DHT22;4900;49.306;8.500;2023-04-08T00:02:21;9.86;74.99
9723;DHT22;4900;49.306;8.500;2023-04-08T00:04:46;9.89;75.10
9723;DHT22;4900;49.306;8.500;2023-04-08T00:07:12;9.91;75.15
9723;DHT22;4900;49.306;8.500;2023-04-08T00:09:37;9.90;75.28
9723;DHT22;4900;49.306;8.500;2023-04-08T00:12:03;9.94;75.12
9723;DHT22;4900;49.306;8.500;2023-04-08T00:14:28;9.96;75.16
9723;DHT22;4900;49.306;8.500;2023-04-08T00:16:54;10.00;75.12
9723;DHT22;4900;49.306;8.500;2023-04-08T00:19:19;10.01;75.05
9723;DHT22;4900;49.306;8.500;2023-04-08T00:21:45;10.04;75.03
9723;DHT22;4900;49.306;8.500;2023-04-08T00:24:10;10.04;74.98
9723;DHT22;4900;49.306;8.500;2023-04-08T00:26:36;10.07;74.92
9723;DHT22;4900;49.306;8.500;2023-04-08T00:29:02;10.10;74.84
9723;DHT22;4900;49.306;8.500;2023-04-08T00:31:27;10.11;74.77
9723;DHT22;4900;49.306;8.500;2023-04-08T00:33:53;10.11;74.63
9723;DHT22;4900;49.306;8.500;2023-04-08T00:36:18;10.11;74.59
9723;DHT22;4900;49.306;8.500;2023-04-08T00:38:44;10.14;74.55
9723;DHT22;4900;49.306;8.500;2023-04-08T00:41:09;10.16;74.43
9723;DHT22;4900;49.306;8.500;2023-04-08T00:43:35;10.11;74.36
9723;DHT22;4900;49.306;8.500;2023-04-08T00:46:00;10.13;74.23
9723;DHT22;4900;49.306;8.500;2023-04-08T00:48:26;10.14;74.05
9723;DHT22;4900;49.306;8.500;2023-04-08T00:50:51;10.16;73.95
9723;DHT22;4900;49.306;8.500;2023-04-08T00:53:18;10.16;73.76
9723;DHT22;4900;49.306;8.500;2023-04-08T00:55:43;10.14;73.65
9723;DHT22;4900;49.306;8.500;2023-04-08T00:58:10;10.16;73.50
9723;DHT22;4900;49.306;8.500;2023-04-08T01:00:39;10.14;73.41
9723;DHT22;4900;49.306;8.500;2023-04-08T01:03:15;10.14;73.30
9723;DHT22;4900;49.306;8.500;2023-04-08T01:08:28;10.13;73.21
9723;DHT22;4900;49.306;8.500;2023-04-08T01:10:59;10.14;73.16
9723;DHT22;4900;49.306;8.500;2023-04-08T01:13:27;10.14;73.20
9723;DHT22;4900;49.306;8.500;2023-04-08T01:15:54;10.13;73.27
9723;DHT22;4900;49.306;8.500;2023-04-08T01:18:21;10.11;73.35
9723;DHT22;4900;49.306;8.500;2023-04-08T01:20:48;10.13;73.55
9723;DHT22;4900;49.306;8.500;2023-04-08T01:23:22;10.11;73.48
9723;DHT22;4900;49.306;8.500;2023-04-08T01:25:53;10.14;73.53
9723;DHT22;4900;49.306;8.500;2023-04-08T01:28:20;10.14;73.57
9723;DHT22;4900;49.306;8.500;2023-04-08T01:30:48;10.18;73.55
9723;DHT22;4900;49.306;8.500;2023-04-08T01:33:16;10.18;73.57
9723;DHT22;4900;49.306;8.500;2023-04-08T01:35:43;10.17;73.63
9723;DHT22;4900;49.306;8.500;2023-04-08T01:38:17;10.17;73.80
9723;DHT22;4900;49.306;8.500;2023-04-08T01:40:43;10.18;73.94
9723;DHT22;4900;49.306;8.500;2023-04-08T01:43:10;10.17;73.97
9723;DHT22;4900;49.306;8.500;2023-04-08T01:45:37;10.17;73.95
9723;DHT22;4900;49.306;8.500;2023-04-08T01:48:03;10.21;73.95
9723;DHT22;4900;49.306;8.500;2023-04-08T01:50:30;10.18;73.95
9723;DHT22;4900;49.306;8.500;2023-04-08T01:52:58;10.18;74.01
9723;DHT22;4900;49.306;8.500;2023-04-08T01:55:25;10.20;74.02
9723;DHT22;4900;49.306;8.500;2023-04-08T01:57:53;10.21;73.91
9723;DHT22;4900;49.306;8.500;2023-04-08T02:00:24;10.18;73.92
9723;DHT22;4900;49.306;8.500;2023-04-08T02:02:50;10.17;74.00
9723;DHT22;4900;49.306;8.500;2023-04-08T02:05:16;10.17;74.14
9723;DHT22;4900;49.306;8.500;2023-04-08T02:07:42;10.14;74.34
9723;DHT22;4900;49.306;8.500;2023-04-08T02:10:09;10.11;74.57
9723;DHT22;4900;49.306;8.500;2023-04-08T02:12:35;10.06;74.87
9723;DHT22;4900;49.306;8.500;2023-04-08T02:15:00;10.06;75.13
9723;DHT22;4900;49.306;8.500;2023-04-08T02:17:46;10.00;75.02
9723;DHT22;4900;49.306;8.500;2023-04-08T02:20:22;10.00;74.97
9723;DHT22;4900;49.306;8.500;2023-04-08T02:23:11;9.93;74.97
9723;DHT22;4900;49.306;8.500;2023-04-08T02:25:40;9.87;75.27
9723;DHT22;4900;49.306;8.500;2023-04-08T02:28:10;9.83;75.38
9723;DHT22;4900;49.306;8.500;2023-04-08T02:30:36;9.79;75.72
9723;DHT22;4900;49.306;8.500;2023-04-08T02:33:06;9.74;75.72
9723;DHT22;4900;49.306;8.500;2023-04-08T02:35:32;9.69;75.81
9723;DHT22;4900;49.306;8.500;2023-04-08T02:37:58;9.66;75.83
9723;DHT22;4900;49.306;8.500;2023-04-08T02:40:32;9.63;75.73
9723;DHT22;4900;49.306;8.500;2023-04-08T02:42:58;9.61;75.80
9723;DHT22;4900;49.306;8.500;2023-04-08T02:45:29;9.56;75.87
9723;DHT22;4900;49.306;8.500;2023-04-08T02:47:55;9.52;75.92
9723;DHT22;4900;49.306;8.500;2023-04-08T02:50:21;9.52;75.79
9723;DHT22;4900;49.306;8.500;2023-04-08T02:52:46;9.51;75.65
9723;DHT22;4900;49.306;8.500;2023-04-08T02:55:12;9.51;75.81
9723;DHT22;4900;49.306;8.500;2023-04-08T02:57:38;9.44;76.05
9723;DHT22;4900;49.306;8.500;2023-04-08T03:00:05;9.38;76.40
9723;DHT22;4900;49.306;8.500;2023-04-08T03:02:32;9.34;76.87
9723;DHT22;4900;49.306;8.500;2023-04-08T03:04:57;9.35;76.91
9723;DHT22;4900;49.306;8.500;2023-04-08T03:07:23;9.32;77.05
9723;DHT22;4900;49.306;8.500;2023-04-08T03:09:48;9.32;77.09
9723;DHT22;4900;49.306;8.500;2023-04-08T03:12:14;9.34;77.12
9723;DHT22;4900;49.306;8.500;2023-04-08T03:14:39;9.35;77.25
9723;DHT22;4900;49.306;8.500;2023-04-08T03:17:05;9.38;77.26
9723;DHT22;4900;49.306;8.500;2023-04-08T03:19:30;9.42;77.15
9723;DHT22;4900;49.306;8.500;2023-04-08T03:21:55;9.41;77.39
9723;DHT22;4900;49.306;8.500;2023-04-08T03:24:21;9.44;77.47
9723;DHT22;4900;49.306;8.500;2023-04-08T03:26:46;9.41;77.61
9723;DHT22;4900;49.306;8.500;2023-04-08T03:29:12;9.45;77.51
9723;DHT22;4900;49.306;8.500;2023-04-08T03:31:37;9.49;77.41
9723;DHT22;4900;49.306;8.500;2023-04-08T03:34:02;9.48;77.34
9723;DHT22;4900;49.306;8.500;2023-04-08T03:36:28;9.45;77.26
9723;DHT22;4900;49.306;8.500;2023-04-08T03:38:53;9.44;77.48
9723;DHT22;4900;49.306;8.500;2023-04-08T03:41:19;9.41;77.48
9723;DHT22;4900;49.306;8.500;2023-04-08T03:43:45;9.38;77.46
9723;DHT22;4900;49.306;8.500;2023-04-08T03:46:10;9.35;77.45
9723;DHT22;4900;49.306;8.500;2023-04-08T03:48:36;9.30;77.35
9723;DHT22;4900;49.306;8.500;2023-04-08T03:51:01;9.23;77.35
9723;DHT22;4900;49.306;8.500;2023-04-08T03:53:27;9.18;77.23
9723;DHT22;4900;49.306;8.500;2023-04-08T03:55:54;9.14;76.93
9723;DHT22;4900;49.306;8.500;2023-04-08T03:58:20;9.06;76.62
9723;DHT22;4900;49.306;8.500;2023-04-08T04:00:45;8.99;76.39
9723;DHT22;4900;49.306;8.500;2023-04-08T04:03:11;8.92;76.15
9723;DHT22;4900;49.306;8.500;2023-04-08T04:05:38;8.86;75.92
9723;DHT22;4900;49.306;8.500;2023-04-08T04:08:04;8.82;75.74
9723;DHT22;4900;49.306;8.500;2023-04-08T04:10:29;8.75;75.56
9723;DHT22;4900;49.306;8.500;2023-04-08T04:12:55;8.69;75.50
9723;DHT22;4900;49.306;8.500;2023-04-08T04:15:20;8.65;75.47
9723;DHT22;4900;49.306;8.500;2023-04-08T04:17:49;8.59;75.61
9723;DHT22;4900;49.306;8.500;2023-04-08T04:20:15;8.61;75.81
9723;DHT22;4900;49.306;8.500;2023-04-08T04:22:43;8.59;76.00
9723;DHT22;4900;49.306;8.500;2023-04-08T04:25:09;8.59;76.25
9723;DHT22;4900;49.306;8.500;2023-04-08T04:27:35;8.62;76.46
9723;DHT22;4900;49.306;8.500;2023-04-08T04:30:02;8.63;76.80
9723;DHT22;4900;49.306;8.500;2023-04-08T04:32:27;8.68;76.95
9723;DHT22;4900;49.306;8.500;2023-04-08T04:34:53;8.69;77.09
9723;DHT22;4900;49.306;8.500;2023-04-08T04:37:19;8.72;77.32
9723;DHT22;4900;49.306;8.500;2023-04-08T04:39:46;8.75;77.57
9723;DHT22;4900;49.306;8.500;2023-04-08T04:42:11;8.82;77.88
9723;DHT22;4900;49.306;8.500;2023-04-08T04:44:37;8.83;77.93
9723;DHT22;4900;49.306;8.500;2023-04-08T04:47:02;8.83;77.95
9723;DHT22;4900;49.306;8.500;2023-04-08T04:49:28;8.90;78.04
9723;DHT22;4900;49.306;8.500;2023-04-08T04:51:53;8.92;78.07
9723;DHT22;4900;49.306;8.500;2023-04-08T04:54:18;8.96;78.15
9723;DHT22;4900;49.306;8.500;2023-04-08T04:56:44;8.99;78.25
9723;DHT22;4900;49.306;8.500;2023-04-08T04:59:10;9.01;78.23
9723;DHT22;4900;49.306;8.500;2023-04-08T05:01:36;9.06;78.24
9723;DHT22;4900;49.306;8.500;2023-04-08T05:04:01;9.08;78.39
9723;DHT22;4900;49.306;8.500;2023-04-08T05:06:26;9.11;78.59
9723;DHT22;4900;49.306;8.500;2023-04-08T05:08:52;9.14;78.68
9723;DHT22;4900;49.306;8.500;2023-04-08T05:11:17;9.16;78.88
9723;DHT22;4900;49.306;8.500;2023-04-08T05:13:44;9.17;78.91
9723;DHT22;4900;49.306;8.500;2023-04-08T05:16:09;9.20;78.94
9723;DHT22;4900;49.306;8.500;2023-04-08T05:18:35;9.24;79.12
9723;DHT22;4900;49.306;8.500;2023-04-08T05:21:01;9.27;79.02
9723;DHT22;4900;49.306;8.500;2023-04-08T05:23:28;9.30;79.10
9723;DHT22;4900;49.306;8.500;2023-04-08T05:25:53;9.35;79.04
9723;DHT22;4900;49.306;8.500;2023-04-08T05:28:19;9.41;79.09
9723;DHT22;4900;49.306;8.500;2023-04-08T05:30:48;9.45;79.10
9723;DHT22;4900;49.306;8.500;2023-04-08T05:33:14;9.51;78.91
9723;DHT22;4900;49.306;8.500;2023-04-08T05:35:40;9.53;78.98
9723;DHT22;4900;49.306;8.500;2023-04-08T05:38:06;9.58;79.00
9723;DHT22;4900;49.306;8.500;2023-04-08T05:40:31;9.62;79.09
9723;DHT22;4900;49.306;8.500;2023-04-08T05:42:57;9.69;78.79
9723;DHT22;4900;49.306;8.500;2023-04-08T05:45:23;9.74;78.71
9723;DHT22;4900;49.306;8.500;2023-04-08T05:47:48;9.82;78.42
9723;DHT22;4900;49.306;8.500;2023-04-08T05:50:14;9.93;78.08
9723;DHT22;4900;49.306;8.500;2023-04-08T05:52:43;9.96;77.97
9723;DHT22;4900;49.306;8.500;2023-04-08T05:55:12;10.06;77.77
9723;DHT22;4900;49.306;8.500;2023-04-08T05:57:37;10.16;77.44
9723;DHT22;4900;49.306;8.500;2023-04-08T06:00:07;10.22;77.47
9723;DHT22;4900;49.306;8.500;2023-04-08T06:02:34;10.31;77.22
9723;DHT22;4900;49.306;8.500;2023-04-08T06:05:00;10.38;77.27
9723;DHT22;4900;49.306;8.500;2023-04-08T06:07:27;10.49;77.20
9723;DHT22;4900;49.306;8.500;2023-04-08T06:09:52;10.61;76.72
9723;DHT22;4900;49.306;8.500;2023-04-08T06:12:18;10.65;76.58
9723;DHT22;4900;49.306;8.500;2023-04-08T06:14:43;10.75;76.40
9723;DHT22;4900;49.306;8.500;2023-04-08T06:17:08;10.83;76.25
9723;DHT22;4900;49.306;8.500;2023-04-08T06:19:34;10.93;75.93
9723;DHT22;4900;49.306;8.500;2023-04-08T06:21:59;11.06;75.66
9723;DHT22;4900;49.306;8.500;2023-04-08T06:24:25;11.15;75.34
9723;DHT22;4900;49.306;8.500;2023-04-08T06:26:52;11.28;75.02
9723;DHT22;4900;49.306;8.500;2023-04-08T06:29:19;11.45;74.77
9723;DHT22;4900;49.306;8.500;2023-04-08T06:31:45;11.59;74.10
9723;DHT22;4900;49.306;8.500;2023-04-08T06:34:11;11.81;73.70
9723;DHT22;4900;49.306;8.500;2023-04-08T06:36:36;11.98;73.43
9723;DHT22;4900;49.306;8.500;2023-04-08T06:39:02;12.07;72.97
9723;DHT22;4900;49.306;8.500;2023-04-08T06:41:28;12.14;72.41
9723;DHT22;4900;49.306;8.500;2023-04-08T06:43:53;12.17;71.76
9723;DHT22;4900;49.306;8.500;2023-04-08T06:46:19;12.21;71.26
9723;DHT22;4900;49.306;8.500;2023-04-08T06:48:45;12.21;70.76
9723;DHT22;4900;49.306;8.500;2023-04-08T06:51:11;12.31;69.68
9723;DHT22;4900;49.306;8.500;2023-04-08T06:53:36;12.66;68.78
9723;DHT22;4900;49.306;8.500;2023-04-08T06:56:02;12.94;67.70
9723;DHT22;4900;49.306;8.500;2023-04-08T06:58:28;13.25;66.88
9723;DHT22;4900;49.306;8.500;2023-04-08T07:00:54;13.66;65.78
9723;DHT22;4900;49.306;8.500;2023-04-08T07:03:23;14.05;64.49
9723;DHT22;4900;49.306;8.500;2023-04-08T07:05:49;14.18;63.77
9723;DHT22;4900;49.306;8.500;2023-04-08T07:08:14;14.60;62.72
9723;DHT22;4900;49.306;8.500;2023-04-08T07:10:40;14.87;61.58
9723;DHT22;4900;49.306;8.500;2023-04-08T07:13:06;15.02;60.91
9723;DHT22;4900;49.306;8.500;2023-04-08T07:15:31;15.42;60.00
9723;DHT22;4900;49.306;8.500;2023-04-08T07:17:57;15.44;59.57
9723;DHT22;4900;49.306;8.500;2023-04-08T07:20:22;15.61;58.29
9723;DHT22;4900;49.306;8.500;2023-04-08T07:22:48;15.75;58.05
9723;DHT22;4900;49.306;8.500;2023-04-08T07:25:14;15.63;57.78
9723;DHT22;4900;49.306;8.500;2023-04-08T07:27:40;15.77;57.69
9723;DHT22;4900;49.306;8.500;2023-04-08T07:30:06;15.74;57.49
9723;DHT22;4900;49.306;8.500;2023-04-08T07:32:32;16.16;56.18
9723;DHT22;4900;49.306;8.500;2023-04-08T07:34:58;16.33;55.11
9723;DHT22;4900;49.306;8.500;2023-04-08T07:37:25;16.26;53.70
9723;DHT22;4900;49.306;8.500;2023-04-08T07:39:50;16.43;53.74
9723;DHT22;4900;49.306;8.500;2023-04-08T07:42:16;16.37;52.65
9723;DHT22;4900;49.306;8.500;2023-04-08T07:44:46;16.43;52.44
9723;DHT22;4900;49.306;8.500;2023-04-08T07:47:12;16.61;51.92
9723;DHT22;4900;49.306;8.500;2023-04-08T07:49:38;16.50;51.97
9723;DHT22;4900;49.306;8.500;2023-04-08T07:52:05;16.51;52.01
9723;DHT22;4900;49.306;8.500;2023-04-08T07:54:31;16.51;52.00
9723;DHT22;4900;49.306;8.500;2023-04-08T07:56:59;16.78;51.44
9723;DHT22;4900;49.306;8.500;2023-04-08T07:59:24;17.13;50.82
9723;DHT22;4900;49.306;8.500;2023-04-08T08:01:50;17.37;50.10
9723;DHT22;4900;49.306;8.500;2023-04-08T08:04:15;17.32;50.31
9723;DHT22;4900;49.306;8.500;2023-04-08T08:06:41;17.22;50.91
9723;DHT22;4900;49.306;8.500;2023-04-08T08:09:06;17.15;50.69
9723;DHT22;4900;49.306;8.500;2023-04-08T08:11:32;16.81;51.46
9723;DHT22;4900;49.306;8.500;2023-04-08T08:13:57;16.74;51.55
9723;DHT22;4900;49.306;8.500;2023-04-08T08:16:23;16.61;52.14
9723;DHT22;4900;49.306;8.500;2023-04-08T08:18:51;16.46;52.21
9723;DHT22;4900;49.306;8.500;2023-04-08T08:21:16;16.34;52.69
9723;DHT22;4900;49.306;8.500;2023-04-08T08:23:42;16.32;52.34
9723;DHT22;4900;49.306;8.500;2023-04-08T08:26:08;16.32;52.40
9723;DHT22;4900;49.306;8.500;2023-04-08T08:28:34;16.41;52.63
9723;DHT22;4900;49.306;8.500;2023-04-08T08:30:59;16.30;52.22
9723;DHT22;4900;49.306;8.500;2023-04-08T08:33:25;16.54;52.11
9723;DHT22;4900;49.306;8.500;2023-04-08T08:35:51;16.69;51.89
9723;DHT22;4900;49.306;8.500;2023-04-08T08:38:16;16.65;52.04
9723;DHT22;4900;49.306;8.500;2023-04-08T08:40:43;16.84;51.68
9723;DHT22;4900;49.306;8.500;2023-04-08T08:43:09;16.83;51.56
9723;DHT22;4900;49.306;8.500;2023-04-08T08:45:41;16.84;50.98
9723;DHT22;4900;49.306;8.500;2023-04-08T08:48:07;16.88;51.03
9723;DHT22;4900;49.306;8.500;2023-04-08T08:50:34;16.96;50.88
9723;DHT22;4900;49.306;8.500;2023-04-08T08:53:00;17.06;50.77
9723;DHT22;4900;49.306;8.500;2023-04-08T08:55:29;17.34;49.75
9723;DHT22;4900;49.306;8.500;2023-04-08T08:57:56;17.82;48.84
9723;DHT22;4900;49.306;8.500;2023-04-08T09:00:35;18.44;48.11
9723;DHT22;4900;49.306;8.500;2023-04-08T09:03:18;18.99;46.79
9723;DHT22;4900;49.306;8.500;2023-04-08T09:05:57;19.64;45.71
9723;DHT22;4900;49.306;8.500;2023-04-08T09:08:27;19.99;44.99
9723;DHT22;4900;49.306;8.500;2023-04-08T09:11:10;20.85;43.58
9723;DHT22;4900;49.306;8.500;2023-04-08T09:13:36;21.07;42.47
9723;DHT22;4900;49.306;8.500;2023-04-08T09:16:04;20.55;42.54
9723;DHT22;4900;49.306;8.500;2023-04-08T09:18:31;20.67;40.80
9723;DHT22;4900;49.306;8.500;2023-04-08T09:21:04;21.16;39.85
9723;DHT22;4900;49.306;8.500;2023-04-08T09:23:49;21.72;40.25
9723;DHT22;4900;49.306;8.500;2023-04-08T09:26:19;22.17;39.41
9723;DHT22;4900;49.306;8.500;2023-04-08T09:31:28;22.40;37.44
9723;DHT22;4900;49.306;8.500;2023-04-08T09:33:56;22.27;36.70
9723;DHT22;4900;49.306;8.500;2023-04-08T09:36:22;22.19;36.54
9723;DHT22;4900;49.306;8.500;2023-04-08T09:38:48;22.10;36.80
9723;DHT22;4900;49.306;8.500;2023-04-08T09:41:15;21.75;37.18
9723;DHT22;4900;49.306;8.500;2023-04-08T09:43:49;21.62;37.59
9723;DHT22;4900;49.306;8.500;2023-04-08T09:46:26;21.46;37.83
9723;DHT22;4900;49.306;8.500;2023-04-08T09:49:06;20.74;37.64
9723;DHT22;4900;49.306;8.500;2023-04-08T09:51:35;20.72;38.06
9723;DHT22;4900;49.306;8.500;2023-04-08T09:54:11;20.61;38.78
9723;DHT22;4900;49.306;8.500;2023-04-08T09:56:48;20.44;39.31
9723;DHT22;4900;49.306;8.500;2023-04-08T09:59:16;20.62;38.77
9723;DHT22;4900;49.306;8.500;2023-04-08T10:01:53;20.79;39.06
9723;DHT22;4900;49.306;8.500;2023-04-08T10:04:22;20.89;38.82
9723;DHT22;4900;49.306;8.500;2023-04-08T10:06:57;20.83;38.83
9723;DHT22;4900;49.306;8.500;2023-04-08T10:09:26;20.82;38.76
9723;DHT22;4900;49.306;8.500;2023-04-08T10:11:52;20.79;38.24
9723;DHT22;4900;49.306;8.500;2023-04-08T10:14:17;20.89;38.59
9723;DHT22;4900;49.306;8.500;2023-04-08T10:16:45;20.79;38.34
9723;DHT22;4900;49.306;8.500;2023-04-08T10:19:36;20.61;38.19
9723;DHT22;4900;49.306;8.500;2023-04-08T10:27:50;20.75;38.33
9723;DHT22;4900;49.306;8.500;2023-04-08T10:32:53;20.86;38.67
9723;DHT22;4900;49.306;8.500;2023-04-08T10:35:34;20.79;38.91
9723;DHT22;4900;49.306;8.500;2023-04-08T10:38:01;20.43;39.09
9723;DHT22;4900;49.306;8.500;2023-04-08T10:40:27;19.87;39.58
9723;DHT22;4900;49.306;8.500;2023-04-08T10:42:56;19.71;40.21
9723;DHT22;4900;49.306;8.500;2023-04-08T10:45:22;19.54;40.62
9723;DHT22;4900;49.306;8.500;2023-04-08T10:47:48;19.12;41.08
9723;DHT22;4900;49.306;8.500;2023-04-08T10:50:15;19.00;41.65
9723;DHT22;4900;49.306;8.500;2023-04-08T10:52:51;18.76;42.03
9723;DHT22;4900;49.306;8.500;2023-04-08T10:55:23;18.72;41.95
9723;DHT22;4900;49.306;8.500;2023-04-08T10:57:49;18.69;41.83
9723;DHT22;4900;49.306;8.500;2023-04-08T11:00:38;18.57;42.54
9723;DHT22;4900;49.306;8.500;2023-04-08T11:03:08;18.58;42.59
9723;DHT22;4900;49.306;8.500;2023-04-08T11:05:34;18.23;42.83
9723;DHT22;4900;49.306;8.500;2023-04-08T11:08:06;18.14;43.05
9723;DHT22;4900;49.306;8.500;2023-04-08T11:10:38;17.99;42.72
9723;DHT22;4900;49.306;8.500;2023-04-08T11:13:08;17.91;43.19
9723;DHT22;4900;49.306;8.500;2023-04-08T11:15:37;17.67;43.20
9723;DHT22;4900;49.306;8.500;2023-04-08T11:18:04;17.51;42.88
9723;DHT22;4900;49.306;8.500;2023-04-08T11:20:31;17.61;43.24
9723;DHT22;4900;49.306;8.500;2023-04-08T11:22:58;17.41;43.47
9723;DHT22;4900;49.306;8.500;2023-04-08T11:25:26;17.44;43.46
9723;DHT22;4900;49.306;8.500;2023-04-08T11:27:51;17.40;42.75
9723;DHT22;4900;49.306;8.500;2023-04-08T11:30:18;17.63;42.87
9723;DHT22;4900;49.306;8.500;2023-04-08T11:32:43;17.79;42.48
9723;DHT22;4900;49.306;8.500;2023-04-08T11:35:09;18.06;42.10
9723;DHT22;4900;49.306;8.500;2023-04-08T11:37:39;18.13;42.26
9723;DHT22;4900;49.306;8.500;2023-04-08T11:40:08;18.39;41.56
9723;DHT22;4900;49.306;8.500;2023-04-08T11:42:34;18.58;41.12
9723;DHT22;4900;49.306;8.500;2023-04-08T11:45:00;18.61;41.25
9723;DHT22;4900;49.306;8.500;2023-04-08T11:47:33;18.67;40.99
9723;DHT22;4900;49.306;8.500;2023-04-08T11:49:59;18.72;40.71
9723;DHT22;4900;49.306;8.500;2023-04-08T11:52:48;18.88;40.89
9723;DHT22;4900;49.306;8.500;2023-04-08T11:55:30;19.13;40.86
9723;DHT22;4900;49.306;8.500;2023-04-08T11:58:01;19.19;40.81
9723;DHT22;4900;49.306;8.500;2023-04-08T12:00:28;19.26;40.38
9723;DHT22;4900;49.306;8.500;2023-04-08T12:02:53;19.44;40.01
9723;DHT22;4900;49.306;8.500;2023-04-08T12:05:19;19.53;39.31
9723;DHT22;4900;49.306;8.500;2023-04-08T12:07:45;19.51;39.64
9723;DHT22;4900;49.306;8.500;2023-04-08T12:10:12;19.67;39.55
9723;DHT22;4900;49.306;8.500;2023-04-08T12:12:38;19.53;39.32
9723;DHT22;4900;49.306;8.500;2023-04-08T12:15:04;19.74;38.92
9723;DHT22;4900;49.306;8.500;2023-04-08T12:17:30;19.79;38.38
9723;DHT22;4900;49.306;8.500;2023-04-08T12:19:55;19.82;38.78
9723;DHT22;4900;49.306;8.500;2023-04-08T12:22:21;19.79;38.23
9723;DHT22;4900;49.306;8.500;2023-04-08T12:24:47;19.89;38.57
9723;DHT22;4900;49.306;8.500;2023-04-08T12:27:12;19.81;38.80
9723;DHT22;4900;49.306;8.500;2023-04-08T12:29:38;19.90;38.00
9723;DHT22;4900;49.306;8.500;2023-04-08T12:32:04;20.09;37.96
9723;DHT22;4900;49.306;8.500;2023-04-08T12:34:30;20.16;37.68
9723;DHT22;4900;49.306;8.500;2023-04-08T12:36:56;20.26;37.19
9723;DHT22;4900;49.306;8.500;2023-04-08T12:39:21;20.36;37.00
9723;DHT22;4900;49.306;8.500;2023-04-08T12:41:47;20.68;37.08
9723;DHT22;4900;49.306;8.500;2023-04-08T12:44:12;20.67;36.53
9723;DHT22;4900;49.306;8.500;2023-04-08T12:46:38;20.67;36.65
9723;DHT22;4900;49.306;8.500;2023-04-08T12:49:03;20.88;37.04
9723;DHT22;4900;49.306;8.500;2023-04-08T12:51:29;20.93;37.14
9723;DHT22;4900;49.306;8.500;2023-04-08T12:53:55;21.14;36.98
9723;DHT22;4900;49.306;8.500;2023-04-08T12:56:20;21.27;37.00
9723;DHT22;4900;49.306;8.500;2023-04-08T12:58:46;21.37;37.09
9723;DHT22;4900;49.306;8.500;2023-04-08T13:01:12;21.30;37.31
9723;DHT22;4900;49.306;8.500;2023-04-08T13:03:37;21.17;37.17
9723;DHT22;4900;49.306;8.500;2023-04-08T13:06:03;21.29;37.64
9723;DHT22;4900;49.306;8.500;2023-04-08T13:08:29;21.47;37.22
9723;DHT22;4900;49.306;8.500;2023-04-08T13:10:54;21.69;37.68
9723;DHT22;4900;49.306;8.500;2023-04-08T13:13:20;22.03;37.17
9723;DHT22;4900;49.306;8.500;2023-04-08T13:15:45;22.36;36.67
9723;DHT22;4900;49.306;8.500;2023-04-08T13:18:11;22.73;36.64
9723;DHT22;4900;49.306;8.500;2023-04-08T13:20:37;22.99;35.88
9723;DHT22;4900;49.306;8.500;2023-04-08T13:23:02;23.15;35.49
9723;DHT22;4900;49.306;8.500;2023-04-08T13:25:28;23.51;35.55
9723;DHT22;4900;49.306;8.500;2023-04-08T13:27:53;23.93;35.17
9723;DHT22;4900;49.306;8.500;2023-04-08T13:30:19;23.74;34.54
9723;DHT22;4900;49.306;8.500;2023-04-08T13:32:44;23.93;34.19
9723;DHT22;4900;49.306;8.500;2023-04-08T13:35:10;23.84;34.29
9723;DHT22;4900;49.306;8.500;2023-04-08T13:37:36;23.55;34.47
9723;DHT22;4900;49.306;8.500;2023-04-08T13:40:01;23.24;34.75
9723;DHT22;4900;49.306;8.500;2023-04-08T13:42:27;23.45;34.62
9723;DHT22;4900;49.306;8.500;2023-04-08T13:44:56;23.90;35.02
9723;DHT22;4900;49.306;8.500;2023-04-08T13:47:22;24.16;34.48
9723;DHT22;4900;49.306;8.500;2023-04-08T13:49:48;24.62;34.74
9723;DHT22;4900;49.306;8.500;2023-04-08T13:52:14;24.92;33.50
9723;DHT22;4900;49.306;8.500;2023-04-08T13:54:39;25.00;32.98
9723;DHT22;4900;49.306;8.500;2023-04-08T13:57:05;25.00;32.84
9723;DHT22;4900;49.306;8.500;2023-04-08T13:59:31;25.14;32.42
9723;DHT22;4900;49.306;8.500;2023-04-08T14:01:56;25.13;32.34
9723;DHT22;4900;49.306;8.500;2023-04-08T14:04:25;25.35;32.41
9723;DHT22;4900;49.306;8.500;2023-04-08T14:06:50;25.92;32.37
9723;DHT22;4900;49.306;8.500;2023-04-08T14:09:17;26.16;31.46
9723;DHT22;4900;49.306;8.500;2023-04-08T14:11:43;26.55;31.29
9723;DHT22;4900;49.306;8.500;2023-04-08T14:14:08;26.98;31.37
9723;DHT22;4900;49.306;8.500;2023-04-08T14:16:34;27.09;30.93
9723;DHT22;4900;49.306;8.500;2023-04-08T14:19:00;26.99;30.25
9723;DHT22;4900;49.306;8.500;2023-04-08T14:21:25;26.57;30.72
9723;DHT22;4900;49.306;8.500;2023-04-08T14:23:52;26.47;31.28
9723;DHT22;4900;49.306;8.500;2023-04-08T14:26:17;26.73;31.59
9723;DHT22;4900;49.306;8.500;2023-04-08T14:28:42;27.29;31.61
9723;DHT22;4900;49.306;8.500;2023-04-08T14:31:08;27.20;30.84
9723;DHT22;4900;49.306;8.500;2023-04-08T14:33:33;27.03;30.99
9723;DHT22;4900;49.306;8.500;2023-04-08T14:35:59;26.82;30.59
9723;DHT22;4900;49.306;8.500;2023-04-08T14:38:25;26.30;30.86
9723;DHT22;4900;49.306;8.500;2023-04-08T14:40:50;25.92;31.35
9723;DHT22;4900;49.306;8.500;2023-04-08T14:43:16;25.47;31.95
9723;DHT22;4900;49.306;8.500;2023-04-08T14:45:42;24.95;32.84
9723;DHT22;4900;49.306;8.500;2023-04-08T14:48:09;24.69;33.18
9723;DHT22;4900;49.306;8.500;2023-04-08T14:50:34;24.32;33.67
9723;DHT22;4900;49.306;8.500;2023-04-08T14:53:00;23.84;34.41
9723;DHT22;4900;49.306;8.500;2023-04-08T14:55:26;23.40;35.13
9723;DHT22;4900;49.306;8.500;2023-04-08T14:57:52;23.19;35.18
9723;DHT22;4900;49.306;8.500;2023-04-08T15:00:20;22.92;35.78
9723;DHT22;4900;49.306;8.500;2023-04-08T15:02:46;22.45;36.64
9723;DHT22;4900;49.306;8.500;2023-04-08T15:05:11;22.12;37.37
9723;DHT22;4900;49.306;8.500;2023-04-08T15:07:36;21.66;37.77
9723;DHT22;4900;49.306;8.500;2023-04-08T15:10:02;21.23;38.45
9723;DHT22;4900;49.306;8.500;2023-04-08T15:12:27;21.21;38.58
9723;DHT22;4900;49.306;8.500;2023-04-08T15:14:53;20.95;39.16
9723;DHT22;4900;49.306;8.500;2023-04-08T15:17:18;20.69;39.91
9723;DHT22;4900;49.306;8.500;2023-04-08T15:19:44;20.30;40.83
9723;DHT22;4900;49.306;8.500;2023-04-08T15:22:10;20.13;41.34
9723;DHT22;4900;49.306;8.500;2023-04-08T15:24:36;19.68;42.03
9723;DHT22;4900;49.306;8.500;2023-04-08T15:27:01;19.48;42.69
9723;DHT22;4900;49.306;8.500;2023-04-08T15:29:27;19.24;43.10
9723;DHT22;4900;49.306;8.500;2023-04-08T15:31:53;18.81;44.13
9723;DHT22;4900;49.306;8.500;2023-04-08T15:34:19;18.57;44.73
9723;DHT22;4900;49.306;8.500;2023-04-08T15:36:44;18.48;44.74
9723;DHT22;4900;49.306;8.500;2023-04-08T15:39:11;18.22;45.40
9723;DHT22;4900;49.306;8.500;2023-04-08T15:41:36;18.06;46.00
9723;DHT22;4900;49.306;8.500;2023-04-08T15:44:02;17.78;46.45
9723;DHT22;4900;49.306;8.500;2023-04-08T15:46:27;17.67;46.80
9723;DHT22;4900;49.306;8.500;2023-04-08T15:48:53;17.54;47.27
9723;DHT22;4900;49.306;8.500;2023-04-08T15:51:19;17.37;47.70
9723;DHT22;4900;49.306;8.500;2023-04-08T15:53:45;17.40;47.79
9723;DHT22;4900;49.306;8.500;2023-04-08T15:56:14;17.34;48.05
9723;DHT22;4900;49.306;8.500;2023-04-08T15:58:41;17.29;48.28
9723;DHT22;4900;49.306;8.500;2023-04-08T16:01:06;17.24;48.20
9723;DHT22;4900;49.306;8.500;2023-04-08T16:03:32;17.20;48.24
9723;DHT22;4900;49.306;8.500;2023-04-08T16:05:58;17.11;48.54
9723;DHT22;4900;49.306;8.500;2023-04-08T16:08:23;16.88;49.11
9723;DHT22;4900;49.306;8.500;2023-04-08T16:10:49;16.83;49.17
9723;DHT22;4900;49.306;8.500;2023-04-08T16:13:15;16.72;49.37
9723;DHT22;4900;49.306;8.500;2023-04-08T16:15:41;16.78;49.40
9723;DHT22;4900;49.306;8.500;2023-04-08T16:18:07;16.71;49.89